Latest Coastal Weather Observations for McCluer Island

IDD60701

Issued at 3:31 am CST Thursday 2 April 2015 (issued every 10 minutes, with the page automatically refreshed every 10 minutes)

About coastal observations | Map of coastal stations | Coastal observations for NT | Marine services | Other Formats
Station Details ID: 014274 Name: MCCLUER ISLAND Lat: -11.05 Lon: 132.98 Height: 1.4 m
Data from the previous 72 hours. | See also: Recent months at McCluer Island
Date/Time
CST
Temp

°C
Wind Pressure Rain
since 9am
mm
Weather Cloud Vis
km
Sea
Height
m
Swell
Dir
 
Speed
knots
Gust
knots
hPa Trend Height
m
Period
s
Dir
02/03:30am 26.7 SE 6 7 1008.1 - 0.0 - - - - - - -
02/03:00am 26.8 SE 6 7 1008.3 - 0.0 - - - - - - -
02/02:30am 26.7 SE 5 6 1008.5 - 0.0 - - - - - - -
02/02:00am 26.8 ESE 5 6 1008.7 - 0.0 - - - - - - -
02/01:30am 27.0 SE 6 7 1009.2 - 0.0 - - - - - - -
02/01:00am 27.2 SE 5 6 1009.5 - 0.0 - - - - - - -
02/12:30am 28.8 E 6 8 1009.7 - 0.0 - - - - - - -
02/12:00am 29.1 E 7 9 1010.1 - 0.0 - - - - - - -
 
Date/Time
CST
Temp

°C
Wind Pressure Rain
since 9am
mm
Weather Cloud Vis
km
Sea
Height
m
Swell
Dir
 
Speed
knots
Gust
knots
hPa Trend Height
m
Period
s
Dir
01/11:30pm 29.0 ENE 9 11 1010.1 - 0.0 - - - - - - -
01/11:00pm 29.1 E 9 11 1010.3 - 0.0 - - - - - - -
01/10:30pm 29.1 E 9 10 1010.4 - 0.0 - - - - - - -
01/10:00pm 29.1 E 9 11 1010.3 - 0.0 - - - - - - -
01/09:30pm 29.0 E 8 9 1010.3 - 0.0 - - - - - - -
01/09:00pm 29.3 ENE 8 10 1009.8 - 0.0 - - - - - - -
01/08:30pm 29.1 E 9 11 1009.5 - 0.0 - - - - - - -
01/08:00pm 29.1 E 9 11 1009.3 - 0.0 - - - - - - -
01/07:30pm 29.2 E 10 11 1009.2 - 0.0 - - - - - - -
01/07:00pm 29.0 ESE 11 13 1009.0 - 0.0 - - - - - - -
01/06:30pm 29.4 E 9 11 1008.6 - 0.0 - - - - - - -
01/06:00pm 29.6 E 10 13 1008.5 - 0.0 - - - - - - -
01/05:30pm 30.0 E 10 12 1008.3 - 0.0 - - - - - - -
01/05:00pm 30.2 E 11 12 1008.3 - 0.0 - - - - - - -
01/04:30pm 30.3 E 11 13 1008.4 - 0.0 - - - - - - -
01/04:00pm 30.6 E 10 12 1008.5 - 0.0 - - - - - - -
01/03:30pm 30.4 E 10 11 1008.5 - 0.0 - - - - - - -
01/03:00pm 30.7 E 10 12 1008.8 - 0.0 - - - - - - -
01/02:30pm 30.8 E 9 11 1008.9 - 0.0 - - - - - - -
01/02:00pm 31.0 ESE 9 11 1009.3 - 0.0 - - - - - - -
01/01:30pm 31.1 E 10 12 1009.7 - 0.0 - - - - - - -
01/01:00pm 31.2 E 10 12 1010.0 - 0.0 - - - - - - -
01/12:30pm 31.1 E 10 12 1010.5 - 0.0 - - - - - - -
01/12:00pm 31.2 E 9 11 1010.9 - 0.0 - - - - - - -
01/11:30am 30.8 E 7 9 1011.3 - 0.0 - - - - - - -
01/11:00am 30.9 E 9 11 1011.6 - 0.0 - - - - - - -
01/10:30am 30.7 E 9 11 1011.8 - 0.0 - - - - - - -
01/10:00am 30.4 E 9 11 1012.0 - 0.0 - - - - - - -
01/09:30am 30.2 E 9 11 1012.1 - 0.0 - - - - - - -
01/09:00am 29.9 E 8 9 1012.0 - 0.0 - - - - - - -
01/08:30am 29.2 E 9 11 1011.8 - 0.0 - - - - - - -
01/08:00am 29.3 E 8 10 1011.8 - 0.0 - - - - - - -
01/07:30am 28.9 E 9 10 1011.4 - 0.0 - - - - - - -
01/07:00am 28.5 E 8 9 1010.9 - 0.0 - - - - - - -
01/06:30am 28.6 E 8 9 1010.8 - 0.0 - - - - - - -
01/06:00am 28.7 E 8 9 1010.4 - 0.0 - - - - - - -
01/05:30am 28.8 ENE 8 9 1010.1 - 0.0 - - - - - - -
01/05:00am 28.7 E 8 10 1010.0 - 0.0 - - - - - - -
01/04:30am 28.8 E 8 10 1009.8 - 0.0 - - - - - - -
01/04:00am 28.7 ESE 6 9 1009.8 - 0.0 - - - - - - -
01/03:30am 28.6 E 8 9 1009.8 - 0.0 - - - - - - -
01/03:00am 28.7 ENE 9 11 1010.0 - 0.0 - - - - - - -
01/02:30am 28.7 ENE 9 10 1010.1 - 0.0 - - - - - - -
01/02:00am 29.0 ENE 10 11 1010.3 - 0.0 - - - - - - -
01/01:30am 28.7 ENE 9 11 1010.7 - 0.0 - - - - - - -
01/01:00am 28.9 ENE 10 11 1011.0 - 0.0 - - - - - - -
01/12:30am 29.0 E 9 11 1011.4 - 0.0 - - - - - - -
01/12:00am 29.1 E 10 11 1011.4 - 0.0 - - - - - - -
 
Date/Time
CST
Temp

°C
Wind Pressure Rain
since 9am
mm
Weather Cloud Vis
km
Sea
Height
m
Swell
Dir
 
Speed
knots
Gust
knots
hPa Trend Height
m
Period
s
Dir
31/11:30pm 29.1 ENE 10 12 1011.6 - 0.0 - - - - - - -
31/11:00pm 29.1 E 11 12 1011.5 - 0.0 - - - - - - -
31/10:30pm 28.9 E 10 11 1011.5 - 0.0 - - - - - - -
31/10:00pm 28.9 E 12 14 1011.4 - 0.0 - - - - - - -
31/09:30pm 29.0 E 13 14 1011.3 - 0.0 - - - - - - -
31/09:00pm 29.0 E 12 14 1011.2 - 0.0 - - - - - - -
31/08:30pm 29.1 E 12 14 1010.7 - 0.0 - - - - - - -
31/08:00pm 29.2 E 12 14 1010.3 - 0.0 - - - - - - -
31/07:30pm 29.4 E 11 13 1010.1 - 0.0 - - - - - - -
31/07:00pm 29.3 E 10 12 1009.7 - 0.0 - - - - - - -
31/06:30pm 29.6 ESE 13 15 1009.5 - 0.0 - - - - - - -
31/06:00pm 29.6 ESE 13 16 1009.4 - 0.0 - - - - - - -
31/05:30pm 30.0 ESE 12 15 1009.3 - 0.0 - - - - - - -
31/05:00pm 30.4 ESE 13 15 1009.3 - 0.0 - - - - - - -
31/04:30pm 30.3 ESE 13 17 1009.2 - 0.0 - - - - - - -
31/04:00pm 30.4 ESE 14 16 1009.2 - 0.0 - - - - - - -
31/03:30pm 30.5 ESE 14 17 1009.2 - 0.0 - - - - - - -
31/03:00pm 30.6 ESE 14 17 1009.4 - 0.0 - - - - - - -
31/02:30pm 30.3 ESE 16 19 1009.5 - 0.0 - - - - - - -
31/02:00pm 30.1 ESE 16 18 1009.9 - 0.0 - - - - - - -
31/01:30pm 30.1 ESE 15 18 1010.3 - 0.0 - - - - - - -
31/01:00pm 30.1 ESE 16 19 1010.8 - 0.0 - - - - - - -
31/12:30pm 30.6 ESE 17 19 1011.4 - 0.0 - - - - - - -
31/12:00pm 29.9 ESE 17 19 1011.9 - 0.0 - - - - - - -
31/11:30am 30.4 ESE 17 19 1012.3 - 0.0 - - - - - - -
31/11:00am 29.6 ESE 16 19 1012.6 - 0.0 - - - - - - -
31/10:30am 30.1 ESE 17 19 1012.8 - 0.0 - - - - - - -
31/10:00am 29.8 ESE 16 19 1012.8 - 0.0 - - - - - - -
31/09:30am 29.8 ESE 16 20 1012.9 - 0.0 - - - - - - -
31/09:00am 29.5 ESE 17 20 1012.7 - 0.0 - - - - - - -
31/08:30am 29.1 ESE 17 20 1012.6 - 0.0 - - - - - - -
31/08:00am 29.0 SE 14 18 1012.4 - 0.0 - - - - - - -
31/07:30am 28.3 SE 15 20 1012.1 - 0.0 - - - - - - -
31/07:00am 28.0 SE 13 18 1011.6 - 0.0 - - - - - - -
31/06:30am 27.6 SE 14 18 1011.1 - 0.0 - - - - - - -
31/06:00am 27.5 SE 10 14 1010.8 - 0.0 - - - - - - -
31/05:30am 27.9 SE 14 18 1010.7 - 0.0 - - - - - - -
31/05:00am 28.2 ESE 13 17 1010.4 - 0.0 - - - - - - -
31/04:30am 27.9 SE 10 15 1010.2 - 0.0 - - - - - - -
31/04:00am 27.6 ESE 10 12 1010.1 - 0.0 - - - - - - -
31/03:30am 27.5 ESE 13 17 1010.2 - 0.0 - - - - - - -
31/03:00am 27.8 SSE 8 9 1010.6 - 0.0 - - - - - - -
31/02:30am 27.7 SE 6 7 1010.6 - 0.0 - - - - - - -
31/02:00am 28.9 ESE 12 14 1011.0 - 0.0 - - - - - - -
31/01:30am 29.0 E 13 15 1011.3 - 0.0 - - - - - - -
31/01:00am 29.2 E 14 16 1011.6 - 0.0 - - - - - - -
31/12:30am 29.1 E 13 15 1012.0 - 0.0 - - - - - - -
31/12:00am 29.1 ESE 13 15 1012.3 - 0.0 - - - - - - -
 
Date/Time
CST
Temp

°C
Wind Pressure Rain
since 9am
mm
Weather Cloud Vis
km
Sea
Height
m
Swell
Dir
 
Speed
knots
Gust
knots
hPa Trend Height
m
Period
s
Dir
30/11:30pm 29.1 E 14 16 1012.5 - 0.0 - - - - - - -
30/11:00pm 29.1 ESE 15 17 1012.6 - 0.0 - - - - - - -
30/10:30pm 29.1 E 15 17 1012.6 - 0.0 - - - - - - -
30/10:00pm 29.2 E 14 17 1012.6 - 0.0 - - - - - - -
30/09:30pm 29.1 E 14 16 1012.4 - 0.0 - - - - - - -
30/09:00pm 29.0 ESE 13 16 1012.0 - 0.0 - - - - - - -
30/08:30pm 29.0 ESE 14 17 1011.7 - 0.0 - - - - - - -
30/08:00pm 28.9 ESE 12 16 1011.5 - 0.0 - - - - - - -
30/07:30pm 28.3 SE 9 13 1011.2 - 0.0 - - - - - - -
30/07:00pm 28.6 ESE 11 14 1011.1 - 0.0 - - - - - - -
30/06:30pm 28.9 ESE 13 16 1010.7 - 0.0 - - - - - - -
30/06:00pm 29.5 ESE 16 18 1010.5 - 0.0 - - - - - - -
30/05:30pm 29.9 ESE 15 18 1010.2 - 0.0 - - - - - - -
30/05:00pm 30.0 ESE 16 19 1010.1 - 0.0 - - - - - - -
30/04:30pm 29.7 ESE 17 20 1010.1 - 0.0 - - - - - - -
30/04:00pm 30.4 ESE 15 18 1010.1 - 0.0 - - - - - - -
30/03:30pm 29.9 E 18 21 1010.2 - 0.0 - - - - - - -
30/03:00pm 30.3 E 18 21 1010.3 - 0.0 - - - - - - -
30/02:30pm 30.2 E 18 21 1010.3 - 0.0 - - - - - - -
30/02:00pm 30.2 E 18 21 1010.4 - 0.0 - - - - - - -
30/01:30pm 30.4 E 17 21 1010.7 - 0.0 - - - - - - -
30/01:00pm 30.0 E 19 23 1010.9 - 0.0 - - - - - - -
30/12:30pm 29.9 E 19 22 1011.4 - 0.0 - - - - - - -
30/12:00pm 30.1 E 20 24 1011.9 - 0.0 - - - - - - -
30/11:30am 29.8 E 20 22 1012.4 - 0.0 - - - - - - -
30/11:00am 30.1 E 19 22 1012.7 - 0.0 - - - - - - -
30/10:30am 29.6 E 20 23 1012.8 - 0.0 - - - - - - -
30/10:00am 29.7 E 20 23 1012.8 - 0.0 - - - - - - -
30/09:30am 29.4 E 19 23 1012.8 - 0.0 - - - - - - -
30/09:00am 29.3 E 17 20 1012.9 - 0.0 - - - - - - -
30/08:30am 29.1 E 17 20 1012.6 - 0.0 - - - - - - -
30/08:00am 28.8 E 17 20 1012.2 - 0.0 - - - - - - -
30/07:30am 28.6 E 15 18 1012.1 - 0.0 - - - - - - -
30/07:00am 28.5 ESE 16 19 1011.7 - 0.0 - - - - - - -
30/06:30am 28.3 ESE 16 19 1011.4 - 0.0 - - - - - - -
30/06:00am 28.4 ESE 16 19 1011.0 - 0.0 - - - - - - -
30/05:30am 28.1 ESE 15 19 1010.8 - 0.0 - - - - - - -
30/05:00am 28.8 ESE 16 19 1010.6 - 0.0 - - - - - - -
30/04:30am 28.7 ESE 16 19 1010.5 - 0.0 - - - - - - -
30/04:00am 28.8 E 16 18 1010.5 - 0.0 - - - - - - -

Other Formats:

Comma delimited format used in spreadsheet applications
http://www.bom.gov.au/fwo/IDD60701/IDD60701.94135.axf

JavaScript Object Notation format (JSON) in row-major order
http://www.bom.gov.au/fwo/IDD60701/IDD60701.94135.json